Pays
Station

 

Conditions  météo  pour  Mount Isa Amo  -  Australie    Australie

  
6 °C
    
 
 

METAR pour Mount Isa Amo :

YBMA 162000Z AUTO 00000KT 9999 // NCD 06/M08 Q1016

 

Voici le bulletin pour Mount Isa Amo - Australie.
 
Le bulletin a été fait il y a un moment, à 20:00 UTC .
Le vent était calme.
 
La température était de 6 °C, avec un point de rosée à -8 °C.
La pression atmosphérique était de 1016 hPa.
L'humidité relative était de 35.8%.
 
La visibilité globale était de supérieure à 10 kilomètres.
 

 
 
 

Pays :   A   B   C   D   E   F   G   H   I   J   K   L   M   N   O   P   Q   R   S   T   U   V   W   Y   Z

 

Partenaires :  Info Météo avec Met'info
Météo Marine avec MeteoMarine.net
Infos Site  |  Infos Légales  |  Crédits  |  Confidentialité
Contactez-nous  |  Ajouter aux favoris
© 2013-2018 METAR - Tous droits réservés